createdAt,value
2022-07-31T00:00:22.077Z,73.00
2022-07-31T00:01:22.117Z,71.80
2022-07-31T00:02:22.050Z,72.20
2022-07-31T00:03:22.096Z,72.90
2022-07-31T00:04:22.012Z,73.00
2022-07-31T00:05:22.012Z,71.80
2022-07-31T00:06:22.107Z,72.10
2022-07-31T00:07:22.098Z,72.30
2022-07-31T00:08:21.967Z,72.10
2022-07-31T00:09:53.376Z,71.56
2022-07-31T00:10:22.952Z,72.06
2022-07-31T00:11:21.973Z,72.60
2022-07-31T00:12:21.935Z,72.40
2022-07-31T00:13:57.952Z,72.00
2022-07-31T00:14:23.018Z,72.30
2022-07-31T00:15:21.945Z,72.30
2022-07-31T00:16:21.900Z,72.30
2022-07-31T00:17:21.959Z,72.40
2022-07-31T00:18:21.888Z,72.20
2022-07-31T00:19:21.872Z,72.30
2022-07-31T00:20:21.909Z,72.00
2022-07-31T00:21:21.887Z,72.30
2022-07-31T00:22:21.874Z,72.80
2022-07-31T00:23:21.892Z,72.94
2022-07-31T00:24:21.805Z,72.84
2022-07-31T00:25:21.818Z,73.14
2022-07-31T00:26:21.809Z,73.47
2022-07-31T00:27:21.845Z,73.14
2022-07-31T00:28:21.810Z,73.58
2022-07-31T00:29:21.810Z,73.18
2022-07-31T00:30:21.789Z,74.18
2022-07-31T00:31:21.837Z,73.47
2022-07-31T00:32:21.722Z,74.08
2022-07-31T00:33:21.701Z,73.98
2022-07-31T00:34:21.698Z,74.08
2022-07-31T00:35:21.712Z,73.27
2022-07-31T00:36:21.703Z,73.47
2022-07-31T00:37:22.677Z,73.78
2022-07-31T00:38:28.841Z,73.98
2022-07-31T00:39:22.645Z,73.58
2022-07-31T00:40:21.638Z,73.47
2022-07-31T00:41:21.620Z,74.08
2022-07-31T00:42:21.660Z,74.08
2022-07-31T00:43:21.650Z,73.88
2022-07-31T00:44:21.620Z,74.21
2022-07-31T00:45:24.093Z,73.81
2022-07-31T00:46:23.199Z,75.42
2022-07-31T00:47:23.960Z,75.02
2022-07-31T00:48:21.542Z,74.21
2022-07-31T00:49:21.564Z,73.71
2022-07-31T00:50:21.551Z,74.32
2022-07-31T00:51:21.539Z,75.02
2022-07-31T00:52:21.543Z,74.32
2022-07-31T00:53:21.509Z,74.75
2022-07-31T00:54:23.069Z,74.72
2022-07-31T00:55:21.472Z,74.21
2022-07-31T00:56:21.531Z,74.45
2022-07-31T00:57:21.470Z,74.82
2022-07-31T00:58:21.450Z,75.35
2022-07-31T00:59:24.653Z,74.85
2022-07-31T01:00:21.457Z,74.35
2022-07-31T01:01:21.460Z,74.75
2022-07-31T01:02:21.425Z,75.56
2022-07-31T01:03:21.406Z,75.35
2022-07-31T01:04:21.358Z,75.76
2022-07-31T01:05:21.385Z,75.29
2022-07-31T01:06:21.378Z,75.79
2022-07-31T01:07:21.378Z,76.10
2022-07-31T01:08:21.408Z,76.30
2022-07-31T01:09:21.397Z,75.79
2022-07-31T01:10:21.308Z,75.53
2022-07-31T01:11:21.313Z,75.79
2022-07-31T01:12:21.318Z,76.23
2022-07-31T01:13:21.267Z,75.39
2022-07-31T01:14:21.266Z,75.29
2022-07-31T01:15:21.323Z,75.09
2022-07-31T01:16:21.266Z,74.79
2022-07-31T01:17:21.262Z,74.85
2022-07-31T01:18:21.242Z,74.75
2022-07-31T01:19:21.219Z,75.26
2022-07-31T01:20:21.237Z,74.35
2022-07-31T01:21:21.196Z,74.21
2022-07-31T01:22:33.478Z,73.71
2022-07-31T01:23:22.205Z,73.81
2022-07-31T01:24:21.154Z,74.01
2022-07-31T01:25:21.247Z,73.81
2022-07-31T01:26:21.159Z,74.11
2022-07-31T01:27:21.125Z,74.11
2022-07-31T01:28:21.119Z,73.91
2022-07-31T01:29:21.175Z,73.71
2022-07-31T01:30:21.143Z,73.61
2022-07-31T01:31:28.343Z,74.21
2022-07-31T01:32:22.061Z,74.21
2022-07-31T01:33:22.128Z,73.91
2022-07-31T01:34:21.047Z,73.81
2022-07-31T01:35:21.065Z,73.81
2022-07-31T01:36:21.048Z,74.11
2022-07-31T01:37:21.006Z,73.81
2022-07-31T01:38:21.026Z,73.81
2022-07-31T01:39:21.035Z,74.15
2022-07-31T01:40:20.991Z,74.55
2022-07-31T01:41:20.980Z,74.25
2022-07-31T01:42:20.996Z,74.15
2022-07-31T01:43:20.984Z,74.65
2022-07-31T01:44:20.960Z,73.85
2022-07-31T01:45:20.946Z,74.45
2022-07-31T01:46:20.922Z,74.85
2022-07-31T01:47:20.983Z,74.99
2022-07-31T01:48:20.884Z,74.99
2022-07-31T01:49:20.991Z,75.29
2022-07-31T01:50:42.122Z,76.43
2022-07-31T01:51:21.861Z,76.14
2022-07-31T01:52:20.868Z,76.64
2022-07-31T01:53:20.905Z,76.84
2022-07-31T01:54:20.881Z,75.96
2022-07-31T01:55:20.904Z,76.14
2022-07-31T01:56:20.807Z,75.93
2022-07-31T01:57:20.840Z,76.37
2022-07-31T01:58:20.810Z,76.77
2022-07-31T01:59:22.923Z,76.37
2022-07-31T02:00:33.262Z,76.97
2022-07-31T02:01:26.641Z,77.62
2022-07-31T02:02:21.751Z,77.78
2022-07-31T02:03:20.727Z,78.28
2022-07-31T02:04:21.713Z,78.52
2022-07-31T02:05:20.744Z,78.22
2022-07-31T02:06:20.733Z,78.46
2022-07-31T02:07:20.686Z,79.77
2022-07-31T02:08:20.690Z,79.16
2022-07-31T02:09:20.710Z,80.07
2022-07-31T02:10:20.654Z,80.41
2022-07-31T02:11:20.657Z,81.42
2022-07-31T02:12:33.506Z,80.96
2022-07-31T02:13:21.669Z,81.67
2022-07-31T02:14:20.649Z,82.21
2022-07-31T02:15:20.650Z,83.01
2022-07-31T02:16:20.601Z,83.15
2022-07-31T02:17:22.644Z,83.15
2022-07-31T02:18:20.579Z,83.96
2022-07-31T02:19:20.667Z,84.51
2022-07-31T02:20:20.564Z,85.02
2022-07-31T02:21:20.555Z,85.16
2022-07-31T02:22:20.609Z,85.39
2022-07-31T02:23:20.618Z,86.61
2022-07-31T02:24:20.505Z,86.82
2022-07-31T02:25:20.498Z,87.05
2022-07-31T02:26:20.555Z,87.36
2022-07-31T02:27:55.478Z,88.01
2022-07-31T02:28:21.466Z,87.81
2022-07-31T02:29:20.539Z,88.42
2022-07-31T02:30:20.460Z,89.06
2022-07-31T02:31:20.496Z,90.08
2022-07-31T02:32:20.418Z,89.47
2022-07-31T02:33:20.449Z,90.38
2022-07-31T02:34:20.419Z,90.12
2022-07-31T02:35:21.380Z,90.53
2022-07-31T02:36:20.385Z,90.22
2022-07-31T02:37:20.385Z,90.57
2022-07-31T02:38:22.575Z,91.17
2022-07-31T02:39:20.336Z,91.89
2022-07-31T02:40:20.323Z,91.68
2022-07-31T02:41:20.366Z,92.24
2022-07-31T02:42:20.339Z,92.33
2022-07-31T02:43:20.322Z,93.35
2022-07-31T02:44:27.220Z,93.41
2022-07-31T02:45:21.288Z,93.25
2022-07-31T02:46:20.271Z,93.35
2022-07-31T02:47:20.289Z,93.65
2022-07-31T02:48:20.270Z,93.15
2022-07-31T02:49:20.336Z,93.76
2022-07-31T02:50:20.607Z,93.70
2022-07-31T02:51:20.239Z,94.10
2022-07-31T02:52:20.256Z,94.10
2022-07-31T02:53:20.191Z,94.21
2022-07-31T02:54:20.218Z,94.21
2022-07-31T02:55:20.180Z,93.70
2022-07-31T02:56:20.180Z,94.21
2022-07-31T02:57:20.175Z,94.56
2022-07-31T02:58:20.173Z,94.96
2022-07-31T02:59:20.118Z,95.26
2022-07-31T03:00:20.114Z,94.76
2022-07-31T03:01:20.149Z,95.26
2022-07-31T03:02:20.160Z,95.51
2022-07-31T03:03:20.193Z,95.78
2022-07-31T03:04:20.069Z,95.67
2022-07-31T03:05:20.071Z,95.62
2022-07-31T03:06:20.074Z,95.82
2022-07-31T03:07:20.035Z,95.82
2022-07-31T03:08:20.020Z,96.02
2022-07-31T03:09:20.005Z,95.41
2022-07-31T03:10:20.035Z,95.41
2022-07-31T03:11:20.049Z,95.72
2022-07-31T03:12:20.044Z,95.82
2022-07-31T03:13:19.978Z,95.72
2022-07-31T03:14:19.955Z,95.92
2022-07-31T03:15:20.006Z,96.02
2022-07-31T03:16:19.950Z,95.92
2022-07-31T03:17:19.925Z,95.82
2022-07-31T03:18:19.990Z,96.12
2022-07-31T03:19:19.939Z,95.72
2022-07-31T03:20:19.912Z,95.72
2022-07-31T03:21:19.920Z,96.02
2022-07-31T03:22:19.952Z,95.92
2022-07-31T03:23:19.876Z,96.53
2022-07-31T03:24:19.875Z,96.17
2022-07-31T03:25:21.277Z,96.27
2022-07-31T03:26:19.836Z,96.33
2022-07-31T03:27:19.819Z,96.12
2022-07-31T03:28:19.859Z,96.07
2022-07-31T03:29:42.333Z,96.23
2022-07-31T03:30:20.810Z,96.63
2022-07-31T03:31:19.805Z,96.78
2022-07-31T03:32:19.818Z,96.73
2022-07-31T03:33:19.784Z,95.97
2022-07-31T03:34:19.787Z,95.97
2022-07-31T03:35:19.738Z,96.47
2022-07-31T03:36:19.732Z,96.78
2022-07-31T03:37:19.716Z,96.58
2022-07-31T03:38:39.728Z,96.37
2022-07-31T03:39:20.699Z,97.19
2022-07-31T03:40:19.679Z,96.68
2022-07-31T03:41:19.705Z,96.68
2022-07-31T03:42:19.706Z,96.78
2022-07-31T03:43:19.640Z,96.78
2022-07-31T03:44:19.735Z,96.68
2022-07-31T03:45:19.706Z,95.47
2022-07-31T03:46:19.716Z,93.09
2022-07-31T03:47:19.633Z,91.99
2022-07-31T03:48:19.613Z,89.06
2022-07-31T03:49:19.683Z,88.72
2022-07-31T03:50:19.593Z,87.36
2022-07-31T03:51:19.587Z,86.35
2022-07-31T03:52:19.598Z,86.51
2022-07-31T03:53:19.616Z,85.05
2022-07-31T03:54:19.620Z,84.91
2022-07-31T03:55:19.520Z,84.71
2022-07-31T03:56:19.579Z,83.80
2022-07-31T03:57:19.491Z,83.60
2022-07-31T03:58:19.521Z,83.26
2022-07-31T03:59:19.540Z,82.14
2022-07-31T04:00:19.454Z,81.36
2022-07-31T04:01:20.746Z,81.56
2022-07-31T04:02:19.609Z,81.32
2022-07-31T04:03:19.447Z,81.67
2022-07-31T04:04:19.505Z,81.82
2022-07-31T04:05:19.440Z,80.05
2022-07-31T04:06:19.438Z,81.26
2022-07-31T04:07:19.402Z,81.76
2022-07-31T04:08:19.409Z,82.07
2022-07-31T04:09:19.406Z,81.67
2022-07-31T04:10:19.367Z,81.46
2022-07-31T04:11:19.394Z,80.85
2022-07-31T04:12:19.422Z,80.76
2022-07-31T04:13:19.355Z,81.05
2022-07-31T04:14:19.352Z,80.11
2022-07-31T04:15:19.365Z,79.41
2022-07-31T04:16:19.384Z,78.76
2022-07-31T04:17:19.287Z,79.16
2022-07-31T04:18:19.259Z,79.27
2022-07-31T04:19:19.259Z,78.56
2022-07-31T04:20:19.333Z,78.46
2022-07-31T04:21:19.246Z,79.36
2022-07-31T04:22:19.259Z,78.86
2022-07-31T04:23:19.281Z,78.36
2022-07-31T04:24:19.247Z,78.76
2022-07-31T04:25:19.242Z,78.26
2022-07-31T04:26:19.947Z,78.66
2022-07-31T04:27:20.230Z,78.26
2022-07-31T04:28:19.166Z,78.46
2022-07-31T04:29:19.179Z,78.02
2022-07-31T04:30:19.196Z,78.12
2022-07-31T04:31:19.166Z,78.16
2022-07-31T04:32:19.169Z,78.42
2022-07-31T04:33:19.129Z,77.42
2022-07-31T04:34:19.130Z,77.62
2022-07-31T04:35:19.124Z,77.51
2022-07-31T04:36:29.944Z,77.21
2022-07-31T04:37:20.153Z,77.28
2022-07-31T04:38:19.133Z,76.77
2022-07-31T04:39:19.043Z,77.72
2022-07-31T04:40:19.075Z,77.78
2022-07-31T04:41:19.017Z,77.58
2022-07-31T04:42:19.011Z,78.52
2022-07-31T04:43:19.187Z,77.72
2022-07-31T04:44:19.024Z,77.62
2022-07-31T04:45:19.039Z,77.11
2022-07-31T04:46:19.054Z,77.68
2022-07-31T04:47:18.943Z,77.58
2022-07-31T04:48:19.007Z,77.82
2022-07-31T04:49:19.157Z,77.38
2022-07-31T04:50:18.975Z,76.97
2022-07-31T04:51:18.897Z,77.28
2022-07-31T04:52:19.035Z,76.77
2022-07-31T04:53:18.933Z,77.08
2022-07-31T04:54:18.870Z,76.37
2022-07-31T04:55:18.865Z,76.67
2022-07-31T04:56:18.887Z,75.96
2022-07-31T04:57:21.904Z,76.43
2022-07-31T04:58:18.969Z,76.54
2022-07-31T04:59:18.853Z,76.94
2022-07-31T05:00:18.886Z,76.23
2022-07-31T05:01:18.903Z,75.73
2022-07-31T05:02:18.844Z,76.64
2022-07-31T05:03:18.812Z,76.84
2022-07-31T05:04:18.773Z,76.14
2022-07-31T05:05:18.780Z,75.73
2022-07-31T05:06:18.840Z,75.43
2022-07-31T05:07:18.766Z,75.43
2022-07-31T05:08:18.743Z,75.70
2022-07-31T05:09:19.611Z,75.39
2022-07-31T05:10:19.777Z,75.49
2022-07-31T05:11:18.736Z,75.99
2022-07-31T05:12:18.722Z,74.99
2022-07-31T05:13:18.736Z,75.70
2022-07-31T05:14:18.695Z,76.60
2022-07-31T05:15:18.662Z,75.70
2022-07-31T05:16:18.728Z,75.76
2022-07-31T05:17:18.649Z,75.46
2022-07-31T05:18:18.648Z,75.86
2022-07-31T05:19:18.654Z,74.65
2022-07-31T05:20:18.625Z,74.85
2022-07-31T05:21:18.587Z,75.42
2022-07-31T05:22:18.918Z,75.05
2022-07-31T05:23:18.644Z,75.02
2022-07-31T05:24:18.552Z,74.82
2022-07-31T05:25:19.586Z,74.21
2022-07-31T05:26:18.572Z,74.41
2022-07-31T05:27:18.541Z,74.72
2022-07-31T05:28:18.512Z,74.28
2022-07-31T05:29:19.550Z,74.38
2022-07-31T05:30:30.631Z,74.18
2022-07-31T05:31:19.511Z,74.08
2022-07-31T05:32:18.513Z,73.78
2022-07-31T05:33:18.466Z,73.47
2022-07-31T05:34:18.466Z,74.24
2022-07-31T05:35:18.471Z,73.74
2022-07-31T05:36:18.419Z,73.44
2022-07-31T05:37:18.419Z,73.44
2022-07-31T05:38:18.395Z,73.64
2022-07-31T05:39:18.388Z,73.94
2022-07-31T05:40:18.414Z,74.04
2022-07-31T05:41:18.578Z,72.00
2022-07-31T05:42:18.353Z,73.61
2022-07-31T05:43:18.369Z,73.57
2022-07-31T05:44:18.342Z,73.10
2022-07-31T05:45:18.333Z,73.21
2022-07-31T05:46:18.310Z,74.07
2022-07-31T05:47:18.313Z,73.07
2022-07-31T05:48:18.342Z,73.77
2022-07-31T05:49:18.624Z,72.06
2022-07-31T05:50:18.557Z,71.93
2022-07-31T05:51:18.254Z,71.23
2022-07-31T05:52:18.269Z,71.43
2022-07-31T05:53:18.237Z,71.53
2022-07-31T05:54:18.239Z,70.32
2022-07-31T05:55:18.214Z,72.00
2022-07-31T05:56:18.224Z,70.19
2022-07-31T05:57:33.707Z,69.46
2022-07-31T05:58:19.334Z,69.35
2022-07-31T05:59:18.563Z,69.93
2022-07-31T06:00:18.180Z,71.83
2022-07-31T06:01:18.206Z,70.62
2022-07-31T06:02:18.157Z,69.93
2022-07-31T06:03:18.126Z,70.89
2022-07-31T06:04:18.121Z,68.89
2022-07-31T06:05:18.111Z,68.79
2022-07-31T06:06:18.117Z,68.69
2022-07-31T06:07:18.138Z,68.16
2022-07-31T06:08:18.744Z,68.52
2022-07-31T06:09:18.077Z,68.32
2022-07-31T06:10:18.060Z,68.39
2022-07-31T06:11:18.052Z,67.19
2022-07-31T06:12:18.062Z,67.29
2022-07-31T06:13:18.038Z,66.89
2022-07-31T06:14:18.026Z,66.99
2022-07-31T06:15:18.021Z,66.49
2022-07-31T06:16:18.172Z,66.86
2022-07-31T06:17:18.207Z,66.43
2022-07-31T06:18:17.971Z,64.83
2022-07-31T06:19:17.950Z,63.93
2022-07-31T06:20:18.976Z,65.20
